Ashland, Kansas
Current Conditions -  °F | °C
As of 1:52 AM on Monday 24 Nov 2014 (Local Time) from KDDC Reporting Station
Clear Clear  
Wind Chill: -6°   Ceiling: Unl
Heat Index:   Visibility: 10mi
Dew Point: -10°   Wind: 15mph
Humidity: 47%   Direction: 310°NW
Pressure: 29.81"   Gusts: NA
Location:  37.19°N, 99.77°W
Report Text: KDDC 240752Z AUTO 31013KT 10SM CLR 00/M10 A2981 RMK AO2 SLP104 T00001100
Loading
Personal Weather Stations






























Interactive Weather Map New forecast layout! Learn more

10-Day Weather Forecast

Advertisements
Track Severe Weather on mobile